Etusivu
METAR-TAF:

METAR-TAF

Lentoasemat :

Kolding, Tanska

Vamdrup

Leveyspiiri: 55-26N, Pituuspiiri: 009-20E, korkeus merenpinnasta: 44 m

Tämänhetkinen sää

Tämä raportti tehtiin 12 tuntia ja 35 minuuttia sitten, kello 14.50 UTC
Tuuli 4 kn kaakosta, vaihdellen idän/kaakon ja etelän välillä
Lämpötila 3°C
Kosteus 75%
Ilmanpaine 1024 hPa
Näkyvyys 10 km tai enemmän
Muutamia pilviä 1500 ft:n korkeudessa
Hajonneita pilviä 3500 ft:n korkeudessa

METAR: EKVD 201450Z 14004KT 110V170 9999 FEW015 BKN035 03/M01 Q1024

Aika: 04:25 (03:25 UTC)

Sääennuste

Tämä raportti tehtiin 15 tuntia ja 29 minuuttia sitten, kello 11.56 UTC
Ennuste voimassa 20. päivästä klo 12 UTC - 20. päivään klo 17 UTC
Tuuli 8 kn idästä/kaakosta
Näkyvyys: 8000 m
Hajonneita pilviä 3000 ft:n korkeudessa
Ajoittain
20. päivästä klo 12 UTC - 20. päivään klo 14 UTC
Hajonneita pilviä 1200 ft:n korkeudessa

TAF: EKVD 201156Z 2012/2017 11008KT 8000 BKN030 TEMPO 2012/2014 BKN012

Säähavainnot ja -ennusteet yli 4000 lentoasemalta (METAR- ja TAF-raportit).

Käytössä olevat sääasemat on merkitty karttaan keltaisilla ja punaisilla pisteillä.

Aseta hiiri pisteen päälle nähdäksesi sääaseman nimen.

Klikkaa sitten nähdäksesi säähavainnot ja -ennusteet.

Kartan vaihtaminen: klikkaa mustalla rastilla varustettuja vihreitä pisteitä, niin voit zoomata sisään; viivalla varustettua vihreää pistettä, niin voit zoomata ulos tai vihreitä nuolia, niin pääset viereisille kartoille.


METAR-TAF: